sensor_id;sensor_type;location;lat;lon;timestamp;P1;durP1;ratioP1;P2;durP2;ratioP2
19560;SDS011;9927;47.792;10.616;2023-09-12T00:00:44;9.98;;;9.13;;
19560;SDS011;9927;47.792;10.616;2023-09-12T00:03:11;10.50;;;9.52;;
19560;SDS011;9927;47.792;10.616;2023-09-12T00:05:38;10.20;;;9.30;;
19560;SDS011;9927;47.792;10.616;2023-09-12T00:08:06;10.18;;;9.27;;
19560;SDS011;9927;47.792;10.616;2023-09-12T00:10:33;9.45;;;8.65;;
19560;SDS011;9927;47.792;10.616;2023-09-12T00:13:00;9.45;;;8.63;;
19560;SDS011;9927;47.792;10.616;2023-09-12T00:15:29;10.48;;;9.48;;
19560;SDS011;9927;47.792;10.616;2023-09-12T00:17:56;9.90;;;9.00;;
19560;SDS011;9927;47.792;10.616;2023-09-12T00:20:24;9.55;;;8.65;;
19560;SDS011;9927;47.792;10.616;2023-09-12T00:22:51;10.02;;;9.20;;
19560;SDS011;9927;47.792;10.616;2023-09-12T00:25:21;10.25;;;9.35;;
19560;SDS011;9927;47.792;10.616;2023-09-12T00:27:48;10.65;;;9.65;;
19560;SDS011;9927;47.792;10.616;2023-09-12T00:30:15;10.00;;;9.20;;
19560;SDS011;9927;47.792;10.616;2023-09-12T00:32:43;10.35;;;9.38;;
19560;SDS011;9927;47.792;10.616;2023-09-12T00:35:10;9.90;;;9.10;;
19560;SDS011;9927;47.792;10.616;2023-09-12T00:37:38;9.07;;;8.32;;
19560;SDS011;9927;47.792;10.616;2023-09-12T00:40:05;9.43;;;8.73;;
19560;SDS011;9927;47.792;10.616;2023-09-12T00:42:33;10.10;;;9.20;;
19560;SDS011;9927;47.792;10.616;2023-09-12T00:45:00;10.35;;;9.40;;
19560;SDS011;9927;47.792;10.616;2023-09-12T00:47:28;10.55;;;9.68;;
19560;SDS011;9927;47.792;10.616;2023-09-12T00:49:56;9.70;;;8.90;;
19560;SDS011;9927;47.792;10.616;2023-09-12T00:52:24;9.80;;;8.90;;
19560;SDS011;9927;47.792;10.616;2023-09-12T00:54:53;9.65;;;8.75;;
19560;SDS011;9927;47.792;10.616;2023-09-12T00:57:21;10.63;;;9.73;;
19560;SDS011;9927;47.792;10.616;2023-09-12T00:59:50;10.20;;;9.20;;
19560;SDS011;9927;47.792;10.616;2023-09-12T01:02:19;9.88;;;9.07;;
19560;SDS011;9927;47.792;10.616;2023-09-12T01:04:46;10.63;;;9.70;;
19560;SDS011;9927;47.792;10.616;2023-09-12T01:07:15;10.10;;;9.10;;
19560;SDS011;9927;47.792;10.616;2023-09-12T01:09:42;10.65;;;9.35;;
19560;SDS011;9927;47.792;10.616;2023-09-12T01:12:09;9.80;;;9.00;;
19560;SDS011;9927;47.792;10.616;2023-09-12T01:14:41;8.82;;;8.13;;
19560;SDS011;9927;47.792;10.616;2023-09-12T01:17:08;9.52;;;8.75;;
19560;SDS011;9927;47.792;10.616;2023-09-12T01:19:36;9.25;;;8.45;;
19560;SDS011;9927;47.792;10.616;2023-09-12T01:25:08;9.45;;;8.60;;
19560;SDS011;9927;47.792;10.616;2023-09-12T01:28:07;9.48;;;8.57;;
19560;SDS011;9927;47.792;10.616;2023-09-12T01:30:36;9.52;;;8.70;;
19560;SDS011;9927;47.792;10.616;2023-09-12T01:33:08;9.20;;;8.40;;
19560;SDS011;9927;47.792;10.616;2023-09-12T01:35:35;9.75;;;9.05;;
19560;SDS011;9927;47.792;10.616;2023-09-12T01:38:03;9.75;;;8.85;;
19560;SDS011;9927;47.792;10.616;2023-09-12T01:40:39;10.40;;;9.40;;
19560;SDS011;9927;47.792;10.616;2023-09-12T01:43:16;9.45;;;8.60;;
19560;SDS011;9927;47.792;10.616;2023-09-12T01:45:46;10.48;;;9.48;;
19560;SDS011;9927;47.792;10.616;2023-09-12T01:48:20;9.52;;;8.70;;
19560;SDS011;9927;47.792;10.616;2023-09-12T01:50:51;10.00;;;9.07;;
19560;SDS011;9927;47.792;10.616;2023-09-12T01:53:18;9.40;;;8.60;;
19560;SDS011;9927;47.792;10.616;2023-09-12T01:55:46;9.63;;;8.70;;
19560;SDS011;9927;47.792;10.616;2023-09-12T01:58:14;9.38;;;8.48;;
19560;SDS011;9927;47.792;10.616;2023-09-12T02:00:42;10.25;;;9.25;;
19560;SDS011;9927;47.792;10.616;2023-09-12T02:03:09;9.50;;;8.52;;
19560;SDS011;9927;47.792;10.616;2023-09-12T02:05:37;9.48;;;8.68;;
19560;SDS011;9927;47.792;10.616;2023-09-12T02:08:05;9.15;;;8.30;;
19560;SDS011;9927;47.792;10.616;2023-09-12T02:10:32;9.63;;;8.82;;
19560;SDS011;9927;47.792;10.616;2023-09-12T02:12:59;10.32;;;9.20;;
19560;SDS011;9927;47.792;10.616;2023-09-12T02:15:27;9.63;;;8.73;;
19560;SDS011;9927;47.792;10.616;2023-09-12T02:17:54;9.50;;;8.70;;
19560;SDS011;9927;47.792;10.616;2023-09-12T02:20:21;10.02;;;9.10;;
19560;SDS011;9927;47.792;10.616;2023-09-12T02:22:48;10.02;;;9.13;;
19560;SDS011;9927;47.792;10.616;2023-09-12T02:25:16;9.43;;;8.63;;
19560;SDS011;9927;47.792;10.616;2023-09-12T02:27:43;9.88;;;8.90;;
19560;SDS011;9927;47.792;10.616;2023-09-12T02:30:10;9.57;;;8.80;;
19560;SDS011;9927;47.792;10.616;2023-09-12T02:32:38;9.52;;;8.73;;
19560;SDS011;9927;47.792;10.616;2023-09-12T02:35:05;9.18;;;8.38;;
19560;SDS011;9927;47.792;10.616;2023-09-12T02:37:32;10.85;;;9.75;;
19560;SDS011;9927;47.792;10.616;2023-09-12T02:40:00;10.30;;;8.95;;
19560;SDS011;9927;47.792;10.616;2023-09-12T02:42:27;9.60;;;8.70;;
19560;SDS011;9927;47.792;10.616;2023-09-12T02:44:55;8.05;;;7.38;;
19560;SDS011;9927;47.792;10.616;2023-09-12T02:47:22;8.77;;;7.90;;
19560;SDS011;9927;47.792;10.616;2023-09-12T02:49:49;9.20;;;8.30;;
19560;SDS011;9927;47.792;10.616;2023-09-12T02:52:16;9.35;;;8.45;;
19560;SDS011;9927;47.792;10.616;2023-09-12T02:54:43;10.95;;;9.95;;
19560;SDS011;9927;47.792;10.616;2023-09-12T02:57:11;9.88;;;9.07;;
19560;SDS011;9927;47.792;10.616;2023-09-12T02:59:38;9.10;;;8.30;;
19560;SDS011;9927;47.792;10.616;2023-09-12T03:02:05;9.73;;;8.93;;
19560;SDS011;9927;47.792;10.616;2023-09-12T03:04:34;9.63;;;8.60;;
19560;SDS011;9927;47.792;10.616;2023-09-12T03:07:02;8.70;;;7.90;;
19560;SDS011;9927;47.792;10.616;2023-09-12T03:09:29;8.88;;;8.18;;
19560;SDS011;9927;47.792;10.616;2023-09-12T03:11:56;9.23;;;8.43;;
19560;SDS011;9927;47.792;10.616;2023-09-12T03:14:24;10.45;;;9.10;;
19560;SDS011;9927;47.792;10.616;2023-09-12T03:16:51;9.95;;;9.07;;
19560;SDS011;9927;47.792;10.616;2023-09-12T03:19:18;11.38;;;10.18;;
19560;SDS011;9927;47.792;10.616;2023-09-12T03:21:45;9.88;;;8.98;;
19560;SDS011;9927;47.792;10.616;2023-09-12T03:24:13;9.93;;;9.02;;
19560;SDS011;9927;47.792;10.616;2023-09-12T03:26:40;9.35;;;7.80;;
19560;SDS011;9927;47.792;10.616;2023-09-12T03:29:07;8.15;;;7.45;;
19560;SDS011;9927;47.792;10.616;2023-09-12T03:31:37;8.80;;;8.00;;
19560;SDS011;9927;47.792;10.616;2023-09-12T03:34:05;8.68;;;7.97;;
19560;SDS011;9927;47.792;10.616;2023-09-12T03:36:32;8.90;;;8.10;;
19560;SDS011;9927;47.792;10.616;2023-09-12T03:38:59;9.70;;;8.80;;
19560;SDS011;9927;47.792;10.616;2023-09-12T03:41:26;9.93;;;8.98;;
19560;SDS011;9927;47.792;10.616;2023-09-12T03:43:54;9.95;;;9.15;;
19560;SDS011;9927;47.792;10.616;2023-09-12T03:46:22;8.70;;;8.00;;
19560;SDS011;9927;47.792;10.616;2023-09-12T03:48:49;9.63;;;8.70;;
19560;SDS011;9927;47.792;10.616;2023-09-12T03:51:16;9.52;;;8.73;;
19560;SDS011;9927;47.792;10.616;2023-09-12T03:53:44;10.73;;;9.73;;
19560;SDS011;9927;47.792;10.616;2023-09-12T03:56:11;10.35;;;9.32;;
19560;SDS011;9927;47.792;10.616;2023-09-12T03:58:39;10.55;;;9.55;;
19560;SDS011;9927;47.792;10.616;2023-09-12T04:01:07;10.00;;;9.10;;
19560;SDS011;9927;47.792;10.616;2023-09-12T04:03:34;10.15;;;9.15;;
19560;SDS011;9927;47.792;10.616;2023-09-12T04:06:02;11.32;;;10.07;;
19560;SDS011;9927;47.792;10.616;2023-09-12T04:08:29;13.52;;;9.77;;
19560;SDS011;9927;47.792;10.616;2023-09-12T04:10:56;11.10;;;9.98;;
19560;SDS011;9927;47.792;10.616;2023-09-12T04:13:23;10.98;;;9.98;;
19560;SDS011;9927;47.792;10.616;2023-09-12T04:15:50;11.68;;;10.13;;
19560;SDS011;9927;47.792;10.616;2023-09-12T04:18:18;13.63;;;10.23;;
19560;SDS011;9927;47.792;10.616;2023-09-12T04:20:45;10.55;;;9.52;;
19560;SDS011;9927;47.792;10.616;2023-09-12T04:23:12;9.90;;;8.82;;
19560;SDS011;9927;47.792;10.616;2023-09-12T04:25:42;10.38;;;9.38;;
19560;SDS011;9927;47.792;10.616;2023-09-12T04:28:12;13.77;;;9.77;;
19560;SDS011;9927;47.792;10.616;2023-09-12T04:30:39;11.80;;;9.25;;
19560;SDS011;9927;47.792;10.616;2023-09-12T04:33:08;10.52;;;9.52;;
19560;SDS011;9927;47.792;10.616;2023-09-12T04:35:35;9.05;;;8.30;;
19560;SDS011;9927;47.792;10.616;2023-09-12T04:38:02;10.50;;;9.50;;
19560;SDS011;9927;47.792;10.616;2023-09-12T04:40:30;10.07;;;9.25;;
19560;SDS011;9927;47.792;10.616;2023-09-12T04:42:58;10.20;;;9.30;;
19560;SDS011;9927;47.792;10.616;2023-09-12T04:45:25;9.82;;;9.00;;
19560;SDS011;9927;47.792;10.616;2023-09-12T04:47:52;10.95;;;10.02;;
19560;SDS011;9927;47.792;10.616;2023-09-12T04:50:19;10.52;;;9.57;;
19560;SDS011;9927;47.792;10.616;2023-09-12T04:52:47;10.75;;;9.63;;
19560;SDS011;9927;47.792;10.616;2023-09-12T04:55:14;10.02;;;9.02;;
19560;SDS011;9927;47.792;10.616;2023-09-12T04:57:41;11.68;;;9.40;;
19560;SDS011;9927;47.792;10.616;2023-09-12T05:00:09;10.25;;;9.02;;
19560;SDS011;9927;47.792;10.616;2023-09-12T05:02:37;10.60;;;9.50;;
19560;SDS011;9927;47.792;10.616;2023-09-12T05:05:05;10.43;;;9.45;;
19560;SDS011;9927;47.792;10.616;2023-09-12T05:07:32;11.13;;;10.02;;
19560;SDS011;9927;47.792;10.616;2023-09-12T05:10:00;12.00;;;10.80;;
19560;SDS011;9927;47.792;10.616;2023-09-12T05:12:27;12.35;;;11.05;;
19560;SDS011;9927;47.792;10.616;2023-09-12T05:14:55;15.32;;;10.70;;
19560;SDS011;9927;47.792;10.616;2023-09-12T05:17:22;11.65;;;10.38;;
19560;SDS011;9927;47.792;10.616;2023-09-12T05:19:49;11.13;;;10.02;;
19560;SDS011;9927;47.792;10.616;2023-09-12T05:22:16;10.73;;;9.10;;
19560;SDS011;9927;47.792;10.616;2023-09-12T05:24:43;10.00;;;9.00;;
19560;SDS011;9927;47.792;10.616;2023-09-12T05:27:12;12.20;;;9.20;;
19560;SDS011;9927;47.792;10.616;2023-09-12T05:29:39;13.00;;;10.02;;
19560;SDS011;9927;47.792;10.616;2023-09-12T05:32:07;18.85;;;9.93;;
19560;SDS011;9927;47.792;10.616;2023-09-12T05:34:34;12.82;;;9.80;;
19560;SDS011;9927;47.792;10.616;2023-09-12T05:37:01;9.95;;;8.95;;
19560;SDS011;9927;47.792;10.616;2023-09-12T05:39:29;10.88;;;8.85;;
19560;SDS011;9927;47.792;10.616;2023-09-12T05:41:57;13.20;;;10.07;;
19560;SDS011;9927;47.792;10.616;2023-09-12T05:44:24;11.32;;;9.57;;
19560;SDS011;9927;47.792;10.616;2023-09-12T05:46:51;14.90;;;10.32;;
19560;SDS011;9927;47.792;10.616;2023-09-12T05:49:18;15.27;;;11.18;;
19560;SDS011;9927;47.792;10.616;2023-09-12T05:51:46;11.93;;;9.93;;
19560;SDS011;9927;47.792;10.616;2023-09-12T05:54:13;12.82;;;10.20;;
19560;SDS011;9927;47.792;10.616;2023-09-12T05:56:41;14.25;;;10.10;;
19560;SDS011;9927;47.792;10.616;2023-09-12T05:59:08;11.57;;;9.27;;
19560;SDS011;9927;47.792;10.616;2023-09-12T06:01:35;15.45;;;9.80;;
19560;SDS011;9927;47.792;10.616;2023-09-12T06:04:03;14.95;;;9.30;;
19560;SDS011;9927;47.792;10.616;2023-09-12T06:06:31;19.15;;;9.85;;
19560;SDS011;9927;47.792;10.616;2023-09-12T06:08:59;15.25;;;9.88;;
19560;SDS011;9927;47.792;10.616;2023-09-12T06:11:26;18.45;;;9.10;;
19560;SDS011;9927;47.792;10.616;2023-09-12T06:13:53;15.90;;;9.57;;
19560;SDS011;9927;47.792;10.616;2023-09-12T06:16:21;18.95;;;10.63;;
19560;SDS011;9927;47.792;10.616;2023-09-12T06:18:49;15.32;;;10.35;;
19560;SDS011;9927;47.792;10.616;2023-09-12T06:21:16;17.92;;;9.23;;
19560;SDS011;9927;47.792;10.616;2023-09-12T06:23:43;14.32;;;9.40;;
19560;SDS011;9927;47.792;10.616;2023-09-12T06:26:11;13.68;;;9.00;;
19560;SDS011;9927;47.792;10.616;2023-09-12T06:28:38;20.42;;;10.60;;
19560;SDS011;9927;47.792;10.616;2023-09-12T06:31:07;17.88;;;8.75;;
19560;SDS011;9927;47.792;10.616;2023-09-12T06:33:37;15.45;;;9.18;;
19560;SDS011;9927;47.792;10.616;2023-09-12T06:36:05;14.85;;;8.48;;
19560;SDS011;9927;47.792;10.616;2023-09-12T06:38:32;20.55;;;9.45;;
19560;SDS011;9927;47.792;10.616;2023-09-12T06:40:59;12.30;;;9.13;;
19560;SDS011;9927;47.792;10.616;2023-09-12T06:43:27;16.70;;;8.80;;
19560;SDS011;9927;47.792;10.616;2023-09-12T06:45:54;18.80;;;9.13;;
19560;SDS011;9927;47.792;10.616;2023-09-12T06:48:21;16.85;;;9.85;;
19560;SDS011;9927;47.792;10.616;2023-09-12T06:50:49;14.85;;;8.65;;
19560;SDS011;9927;47.792;10.616;2023-09-12T06:53:19;11.70;;;7.90;;
19560;SDS011;9927;47.792;10.616;2023-09-12T06:55:47;11.70;;;8.68;;
19560;SDS011;9927;47.792;10.616;2023-09-12T06:58:14;11.55;;;9.07;;
19560;SDS011;9927;47.792;10.616;2023-09-12T07:00:41;12.52;;;8.77;;
19560;SDS011;9927;47.792;10.616;2023-09-12T07:03:08;11.70;;;8.18;;
19560;SDS011;9927;47.792;10.616;2023-09-12T07:05:40;10.82;;;8.30;;
19560;SDS011;9927;47.792;10.616;2023-09-12T07:08:08;13.07;;;8.55;;
19560;SDS011;9927;47.792;10.616;2023-09-12T07:10:36;9.45;;;8.52;;
19560;SDS011;9927;47.792;10.616;2023-09-12T07:13:03;8.90;;;8.00;;
19560;SDS011;9927;47.792;10.616;2023-09-12T07:15:31;8.50;;;7.55;;
19560;SDS011;9927;47.792;10.616;2023-09-12T07:17:58;7.97;;;7.13;;
19560;SDS011;9927;47.792;10.616;2023-09-12T07:20:26;9.57;;;8.68;;
19560;SDS011;9927;47.792;10.616;2023-09-12T07:22:53;7.88;;;7.15;;
19560;SDS011;9927;47.792;10.616;2023-09-12T07:25:20;8.05;;;7.25;;
19560;SDS011;9927;47.792;10.616;2023-09-12T07:27:50;8.43;;;7.63;;
19560;SDS011;9927;47.792;10.616;2023-09-12T07:30:18;8.50;;;7.43;;
19560;SDS011;9927;47.792;10.616;2023-09-12T07:32:45;10.27;;;7.68;;
19560;SDS011;9927;47.792;10.616;2023-09-12T07:35:13;7.60;;;7.10;;
19560;SDS011;9927;47.792;10.616;2023-09-12T07:37:40;8.10;;;7.22;;
19560;SDS011;9927;47.792;10.616;2023-09-12T07:40:07;8.50;;;7.55;;
19560;SDS011;9927;47.792;10.616;2023-09-12T07:42:36;7.55;;;7.03;;
19560;SDS011;9927;47.792;10.616;2023-09-12T07:45:04;8.68;;;7.13;;
19560;SDS011;9927;47.792;10.616;2023-09-12T07:47:32;7.22;;;6.72;;
19560;SDS011;9927;47.792;10.616;2023-09-12T07:49:59;6.95;;;6.45;;
19560;SDS011;9927;47.792;10.616;2023-09-12T07:52:27;8.30;;;7.50;;
19560;SDS011;9927;47.792;10.616;2023-09-12T07:54:59;7.95;;;7.20;;
19560;SDS011;9927;47.792;10.616;2023-09-12T07:57:27;6.10;;;5.70;;
19560;SDS011;9927;47.792;10.616;2023-09-12T07:59:56;8.90;;;8.00;;
19560;SDS011;9927;47.792;10.616;2023-09-12T08:02:23;8.00;;;7.30;;
19560;SDS011;9927;47.792;10.616;2023-09-12T08:04:51;7.88;;;7.15;;
19560;SDS011;9927;47.792;10.616;2023-09-12T08:07:18;7.00;;;6.40;;
19560;SDS011;9927;47.792;10.616;2023-09-12T08:09:52;6.50;;;6.10;;
19560;SDS011;9927;47.792;10.616;2023-09-12T08:12:21;7.07;;;6.55;;
19560;SDS011;9927;47.792;10.616;2023-09-12T08:14:50;8.25;;;7.55;;
19560;SDS011;9927;47.792;10.616;2023-09-12T08:17:17;8.05;;;6.93;;
19560;SDS011;9927;47.792;10.616;2023-09-12T08:19:45;7.13;;;6.43;;
19560;SDS011;9927;47.792;10.616;2023-09-12T08:22:13;7.70;;;6.97;;
19560;SDS011;9927;47.792;10.616;2023-09-12T08:24:40;6.88;;;6.28;;
19560;SDS011;9927;47.792;10.616;2023-09-12T08:27:08;8.27;;;7.45;;
19560;SDS011;9927;47.792;10.616;2023-09-12T08:29:36;8.63;;;7.80;;
19560;SDS011;9927;47.792;10.616;2023-09-12T08:32:03;8.27;;;7.57;;
19560;SDS011;9927;47.792;10.616;2023-09-12T08:34:31;7.03;;;6.53;;
19560;SDS011;9927;47.792;10.616;2023-09-12T08:36:59;8.27;;;7.68;;
19560;SDS011;9927;47.792;10.616;2023-09-12T08:39:27;7.18;;;6.50;;
19560;SDS011;9927;47.792;10.616;2023-09-12T08:41:54;9.15;;;6.78;;
19560;SDS011;9927;47.792;10.616;2023-09-12T08:44:22;7.22;;;6.63;;
19560;SDS011;9927;47.792;10.616;2023-09-12T08:46:49;7.40;;;6.50;;
19560;SDS011;9927;47.792;10.616;2023-09-12T08:49:17;6.68;;;6.18;;
19560;SDS011;9927;47.792;10.616;2023-09-12T08:51:44;6.65;;;6.03;;
19560;SDS011;9927;47.792;10.616;2023-09-12T08:54:11;6.80;;;6.30;;
19560;SDS011;9927;47.792;10.616;2023-09-12T08:56:40;7.40;;;6.80;;
19560;SDS011;9927;47.792;10.616;2023-09-12T08:59:10;7.43;;;6.80;;
19560;SDS011;9927;47.792;10.616;2023-09-12T09:01:38;6.90;;;6.30;;
19560;SDS011;9927;47.792;10.616;2023-09-12T09:04:06;7.35;;;6.68;;
19560;SDS011;9927;47.792;10.616;2023-09-12T09:06:34;7.55;;;6.85;;
19560;SDS011;9927;47.792;10.616;2023-09-12T09:09:07;8.98;;;7.30;;
19560;SDS011;9927;47.792;10.616;2023-09-12T09:11:35;7.43;;;6.93;;
19560;SDS011;9927;47.792;10.616;2023-09-12T09:14:03;7.65;;;7.05;;
19560;SDS011;9927;47.792;10.616;2023-09-12T09:16:30;8.00;;;7.40;;
19560;SDS011;9927;47.792;10.616;2023-09-12T09:18:58;8.02;;;7.35;;
19560;SDS011;9927;47.792;10.616;2023-09-12T09:21:28;7.55;;;6.90;;
19560;SDS011;9927;47.792;10.616;2023-09-12T09:24:00;8.20;;;7.40;;
19560;SDS011;9927;47.792;10.616;2023-09-12T09:26:43;7.38;;;6.78;;
19560;SDS011;9927;47.792;10.616;2023-09-12T09:31:43;8.48;;;7.68;;
19560;SDS011;9927;47.792;10.616;2023-09-12T09:34:13;8.77;;;7.93;;
19560;SDS011;9927;47.792;10.616;2023-09-12T09:36:44;9.50;;;7.40;;
19560;SDS011;9927;47.792;10.616;2023-09-12T09:39:20;8.82;;;8.02;;
19560;SDS011;9927;47.792;10.616;2023-09-12T09:41:50;9.45;;;8.65;;
19560;SDS011;9927;47.792;10.616;2023-09-12T09:44:22;8.80;;;7.93;;
19560;SDS011;9927;47.792;10.616;2023-09-12T09:46:54;8.50;;;7.80;;
19560;SDS011;9927;47.792;10.616;2023-09-12T09:49:24;8.40;;;7.60;;
19560;SDS011;9927;47.792;10.616;2023-09-12T09:51:52;6.90;;;6.40;;
19560;SDS011;9927;47.792;10.616;2023-09-12T09:54:21;8.70;;;7.90;;
19560;SDS011;9927;47.792;10.616;2023-09-12T09:56:55;8.40;;;7.60;;
19560;SDS011;9927;47.792;10.616;2023-09-12T09:59:23;8.80;;;7.78;;
19560;SDS011;9927;47.792;10.616;2023-09-12T10:01:55;9.02;;;8.23;;
19560;SDS011;9927;47.792;10.616;2023-09-12T10:04:26;8.18;;;7.57;;
19560;SDS011;9927;47.792;10.616;2023-09-12T10:06:57;8.38;;;7.57;;
19560;SDS011;9927;47.792;10.616;2023-09-12T10:09:25;8.02;;;7.43;;
19560;SDS011;9927;47.792;10.616;2023-09-12T10:11:54;8.77;;;7.97;;
19560;SDS011;9927;47.792;10.616;2023-09-12T10:14:23;8.95;;;8.15;;
19560;SDS011;9927;47.792;10.616;2023-09-12T10:16:54;8.90;;;8.15;;
19560;SDS011;9927;47.792;10.616;2023-09-12T10:19:43;8.63;;;7.93;;
19560;SDS011;9927;47.792;10.616;2023-09-12T10:22:17;8.00;;;7.35;;
19560;SDS011;9927;47.792;10.616;2023-09-12T10:24:50;8.32;;;7.60;;
19560;SDS011;9927;47.792;10.616;2023-09-12T10:27:20;8.38;;;7.78;;
19560;SDS011;9927;47.792;10.616;2023-09-12T10:29:51;8.73;;;8.02;;
19560;SDS011;9927;47.792;10.616;2023-09-12T10:32:20;11.95;;;8.82;;
19560;SDS011;9927;47.792;10.616;2023-09-12T10:34:49;8.93;;;7.78;;
19560;SDS011;9927;47.792;10.616;2023-09-12T10:37:18;8.32;;;7.55;;
19560;SDS011;9927;47.792;10.616;2023-09-12T10:39:48;8.45;;;7.75;;
19560;SDS011;9927;47.792;10.616;2023-09-12T10:42:17;8.07;;;7.28;;
19560;SDS011;9927;47.792;10.616;2023-09-12T10:44:47;7.72;;;7.13;;
19560;SDS011;9927;47.792;10.616;2023-09-12T10:47:16;8.27;;;6.97;;
19560;SDS011;9927;47.792;10.616;2023-09-12T10:49:45;8.48;;;7.68;;
19560;SDS011;9927;47.792;10.616;2023-09-12T10:52:25;9.10;;;8.00;;
19560;SDS011;9927;47.792;10.616;2023-09-12T10:54:53;7.70;;;7.00;;
19560;SDS011;9927;47.792;10.616;2023-09-12T10:57:21;7.90;;;7.30;;
19560;SDS011;9927;47.792;10.616;2023-09-12T11:02:38;7.72;;;6.95;;
19560;SDS011;9927;47.792;10.616;2023-09-12T11:05:07;8.48;;;7.68;;
19560;SDS011;9927;47.792;10.616;2023-09-12T11:07:57;7.45;;;6.75;;
19560;SDS011;9927;47.792;10.616;2023-09-12T11:10:25;9.35;;;7.65;;
19560;SDS011;9927;47.792;10.616;2023-09-12T11:12:54;7.18;;;6.57;;
19560;SDS011;9927;47.792;10.616;2023-09-12T11:15:24;7.22;;;6.50;;
19560;SDS011;9927;47.792;10.616;2023-09-12T11:18:05;7.60;;;6.30;;
19560;SDS011;9927;47.792;10.616;2023-09-12T11:20:52;8.70;;;7.90;;
19560;SDS011;9927;47.792;10.616;2023-09-12T11:23:26;7.68;;;6.95;;
19560;SDS011;9927;47.792;10.616;2023-09-12T11:26:05;7.75;;;7.05;;
19560;SDS011;9927;47.792;10.616;2023-09-12T11:28:34;7.43;;;6.82;;
19560;SDS011;9927;47.792;10.616;2023-09-12T11:31:02;7.30;;;6.63;;
19560;SDS011;9927;47.792;10.616;2023-09-12T11:33:31;7.82;;;7.07;;
19560;SDS011;9927;47.792;10.616;2023-09-12T11:35:59;7.60;;;6.72;;
19560;SDS011;9927;47.792;10.616;2023-09-12T11:38:30;8.68;;;7.82;;
19560;SDS011;9927;47.792;10.616;2023-09-12T11:40:58;7.38;;;6.72;;
19560;SDS011;9927;47.792;10.616;2023-09-12T11:43:27;8.68;;;7.50;;
19560;SDS011;9927;47.792;10.616;2023-09-12T11:45:55;7.80;;;7.00;;
19560;SDS011;9927;47.792;10.616;2023-09-12T11:48:23;8.38;;;7.32;;
19560;SDS011;9927;47.792;10.616;2023-09-12T11:50:54;8.07;;;7.38;;
19560;SDS011;9927;47.792;10.616;2023-09-12T11:53:23;7.45;;;6.85;;
19560;SDS011;9927;47.792;10.616;2023-09-12T11:55:53;8.50;;;7.25;;
19560;SDS011;9927;47.792;10.616;2023-09-12T11:58:24;7.47;;;6.78;;
19560;SDS011;9927;47.792;10.616;2023-09-12T12:00:52;8.38;;;7.00;;
19560;SDS011;9927;47.792;10.616;2023-09-12T12:03:21;7.18;;;6.53;;
19560;SDS011;9927;47.792;10.616;2023-09-12T12:05:50;8.90;;;6.63;;
19560;SDS011;9927;47.792;10.616;2023-09-12T12:08:18;7.38;;;6.78;;
19560;SDS011;9927;47.792;10.616;2023-09-12T12:10:58;10.30;;;7.05;;
19560;SDS011;9927;47.792;10.616;2023-09-12T12:13:26;7.47;;;6.82;;
19560;SDS011;9927;47.792;10.616;2023-09-12T12:15:55;7.85;;;6.15;;
19560;SDS011;9927;47.792;10.616;2023-09-12T12:18:24;11.20;;;6.93;;
19560;SDS011;9927;47.792;10.616;2023-09-12T12:20:51;7.53;;;6.75;;
19560;SDS011;9927;47.792;10.616;2023-09-12T12:23:19;7.68;;;7.07;;
19560;SDS011;9927;47.792;10.616;2023-09-12T12:25:46;7.22;;;6.53;;
19560;SDS011;9927;47.792;10.616;2023-09-12T12:28:13;7.63;;;6.82;;
19560;SDS011;9927;47.792;10.616;2023-09-12T12:30:43;7.93;;;7.25;;
19560;SDS011;9927;47.792;10.616;2023-09-12T12:33:10;7.47;;;6.80;;
19560;SDS011;9927;47.792;10.616;2023-09-12T12:36:01;7.43;;;6.57;;
19560;SDS011;9927;47.792;10.616;2023-09-12T12:38:38;7.72;;;6.45;;
19560;SDS011;9927;47.792;10.616;2023-09-12T12:41:17;7.35;;;6.55;;
19560;SDS011;9927;47.792;10.616;2023-09-12T12:43:59;7.22;;;6.57;;
19560;SDS011;9927;47.792;10.616;2023-09-12T12:46:30;6.57;;;5.80;;
19560;SDS011;9927;47.792;10.616;2023-09-12T12:48:57;6.70;;;6.10;;
19560;SDS011;9927;47.792;10.616;2023-09-12T12:51:25;6.72;;;6.22;;
19560;SDS011;9927;47.792;10.616;2023-09-12T12:53:53;6.63;;;6.03;;
19560;SDS011;9927;47.792;10.616;2023-09-12T12:56:22;7.28;;;6.50;;
19560;SDS011;9927;47.792;10.616;2023-09-12T12:58:58;8.25;;;6.20;;
19560;SDS011;9927;47.792;10.616;2023-09-12T13:01:29;7.32;;;6.80;;
19560;SDS011;9927;47.792;10.616;2023-09-12T13:03:56;7.00;;;6.40;;
19560;SDS011;9927;47.792;10.616;2023-09-12T13:06:24;7.07;;;6.47;;
19560;SDS011;9927;47.792;10.616;2023-09-12T13:08:53;7.38;;;6.78;;
19560;SDS011;9927;47.792;10.616;2023-09-12T13:11:21;7.22;;;6.53;;
19560;SDS011;9927;47.792;10.616;2023-09-12T13:13:49;7.30;;;6.60;;
19560;SDS011;9927;47.792;10.616;2023-09-12T13:16:16;9.90;;;7.90;;
19560;SDS011;9927;47.792;10.616;2023-09-12T13:18:44;7.30;;;6.43;;
19560;SDS011;9927;47.792;10.616;2023-09-12T13:21:12;7.43;;;6.68;;
19560;SDS011;9927;47.792;10.616;2023-09-12T13:23:39;10.43;;;7.68;;
19560;SDS011;9927;47.792;10.616;2023-09-12T13:26:08;7.25;;;6.65;;
19560;SDS011;9927;47.792;10.616;2023-09-12T13:28:36;7.75;;;6.95;;
19560;SDS011;9927;47.792;10.616;2023-09-12T13:31:03;7.93;;;6.45;;
19560;SDS011;9927;47.792;10.616;2023-09-12T13:33:31;6.82;;;6.32;;
19560;SDS011;9927;47.792;10.616;2023-09-12T13:35:58;7.55;;;6.82;;
19560;SDS011;9927;47.792;10.616;2023-09-12T13:38:26;7.72;;;6.35;;
19560;SDS011;9927;47.792;10.616;2023-09-12T13:40:53;7.20;;;6.55;;
19560;SDS011;9927;47.792;10.616;2023-09-12T13:43:20;7.03;;;6.38;;
19560;SDS011;9927;47.792;10.616;2023-09-12T13:45:49;6.72;;;6.10;;
19560;SDS011;9927;47.792;10.616;2023-09-12T13:48:17;7.80;;;6.85;;
19560;SDS011;9927;47.792;10.616;2023-09-12T13:50:44;6.90;;;6.30;;
19560;SDS011;9927;47.792;10.616;2023-09-12T13:53:12;8.98;;;6.63;;
19560;SDS011;9927;47.792;10.616;2023-09-12T13:55:41;7.18;;;6.40;;
19560;SDS011;9927;47.792;10.616;2023-09-12T13:58:28;6.95;;;6.25;;
19560;SDS011;9927;47.792;10.616;2023-09-12T14:01:11;7.10;;;6.50;;
19560;SDS011;9927;47.792;10.616;2023-09-12T14:03:56;7.28;;;6.68;;
19560;SDS011;9927;47.792;10.616;2023-09-12T14:06:24;6.75;;;6.15;;
19560;SDS011;9927;47.792;10.616;2023-09-12T14:08:52;7.82;;;6.10;;
19560;SDS011;9927;47.792;10.616;2023-09-12T14:11:20;9.38;;;8.50;;
19560;SDS011;9927;47.792;10.616;2023-09-12T14:14:00;7.38;;;6.68;;
19560;SDS011;9927;47.792;10.616;2023-09-12T14:16:41;6.38;;;5.88;;
19560;SDS011;9927;47.792;10.616;2023-09-12T14:19:13;6.47;;;5.97;;
19560;SDS011;9927;47.792;10.616;2023-09-12T14:21:41;6.43;;;5.93;;
19560;SDS011;9927;47.792;10.616;2023-09-12T14:24:12;6.75;;;6.20;;
19560;SDS011;9927;47.792;10.616;2023-09-12T14:26:40;8.02;;;6.03;;
19560;SDS011;9927;47.792;10.616;2023-09-12T14:29:07;6.82;;;6.22;;
19560;SDS011;9927;47.792;10.616;2023-09-12T14:31:35;5.75;;;5.25;;
19560;SDS011;9927;47.792;10.616;2023-09-12T14:34:04;6.60;;;5.93;;
19560;SDS011;9927;47.792;10.616;2023-09-12T14:36:33;5.90;;;5.50;;
19560;SDS011;9927;47.792;10.616;2023-09-12T14:39:00;7.38;;;6.40;;
19560;SDS011;9927;47.792;10.616;2023-09-12T14:41:27;7.05;;;6.03;;
19560;SDS011;9927;47.792;10.616;2023-09-12T14:43:54;7.28;;;6.15;;
19560;SDS011;9927;47.792;10.616;2023-09-12T14:46:22;6.82;;;6.13;;
19560;SDS011;9927;47.792;10.616;2023-09-12T14:48:49;6.80;;;6.28;;
19560;SDS011;9927;47.792;10.616;2023-09-12T14:51:28;6.50;;;5.95;;
19560;SDS011;9927;47.792;10.616;2023-09-12T14:54:00;6.85;;;6.32;;
19560;SDS011;9927;47.792;10.616;2023-09-12T14:56:28;7.68;;;6.88;;
19560;SDS011;9927;47.792;10.616;2023-09-12T14:58:56;6.45;;;5.90;;
19560;SDS011;9927;47.792;10.616;2023-09-12T15:01:24;6.80;;;6.30;;